sensor_id;sensor_type;location;lat;lon;timestamp;P1;durP1;ratioP1;P2;durP2;ratioP2
20531;SDS011;10424;52.102;8.084;2022-08-07T00:00:52;8.20;;;2.80;;
20531;SDS011;10424;52.102;8.084;2022-08-07T00:03:19;7.10;;;3.05;;
20531;SDS011;10424;52.102;8.084;2022-08-07T00:05:48;4.45;;;3.10;;
20531;SDS011;10424;52.102;8.084;2022-08-07T00:08:16;8.02;;;3.35;;
20531;SDS011;10424;52.102;8.084;2022-08-07T00:10:44;5.20;;;3.25;;
20531;SDS011;10424;52.102;8.084;2022-08-07T00:13:11;5.10;;;3.22;;
20531;SDS011;10424;52.102;8.084;2022-08-07T00:15:40;7.57;;;3.90;;
20531;SDS011;10424;52.102;8.084;2022-08-07T00:18:07;6.20;;;3.85;;
20531;SDS011;10424;52.102;8.084;2022-08-07T00:20:35;6.50;;;3.92;;
20531;SDS011;10424;52.102;8.084;2022-08-07T00:23:02;8.40;;;4.30;;
20531;SDS011;10424;52.102;8.084;2022-08-07T00:25:31;7.30;;;4.05;;
20531;SDS011;10424;52.102;8.084;2022-08-07T00:27:58;7.60;;;4.18;;
20531;SDS011;10424;52.102;8.084;2022-08-07T00:30:25;6.82;;;4.20;;
20531;SDS011;10424;52.102;8.084;2022-08-07T00:32:55;7.15;;;4.50;;
20531;SDS011;10424;52.102;8.084;2022-08-07T00:35:22;6.60;;;4.43;;
20531;SDS011;10424;52.102;8.084;2022-08-07T00:37:49;10.52;;;4.43;;
20531;SDS011;10424;52.102;8.084;2022-08-07T00:40:17;7.53;;;4.80;;
20531;SDS011;10424;52.102;8.084;2022-08-07T00:42:44;7.60;;;4.55;;
20531;SDS011;10424;52.102;8.084;2022-08-07T00:45:12;6.30;;;4.30;;
20531;SDS011;10424;52.102;8.084;2022-08-07T00:47:39;9.27;;;4.65;;
20531;SDS011;10424;52.102;8.084;2022-08-07T00:50:09;7.82;;;4.78;;
20531;SDS011;10424;52.102;8.084;2022-08-07T00:52:36;9.50;;;5.30;;
20531;SDS011;10424;52.102;8.084;2022-08-07T00:55:03;7.90;;;5.13;;
20531;SDS011;10424;52.102;8.084;2022-08-07T00:57:31;8.35;;;4.93;;
20531;SDS011;10424;52.102;8.084;2022-08-07T00:59:59;8.15;;;5.28;;
20531;SDS011;10424;52.102;8.084;2022-08-07T01:02:26;9.00;;;4.85;;
20531;SDS011;10424;52.102;8.084;2022-08-07T01:04:53;7.88;;;4.80;;
20531;SDS011;10424;52.102;8.084;2022-08-07T01:07:22;8.02;;;5.07;;
20531;SDS011;10424;52.102;8.084;2022-08-07T01:09:50;7.22;;;5.07;;
20531;SDS011;10424;52.102;8.084;2022-08-07T01:12:17;9.07;;;4.97;;
20531;SDS011;10424;52.102;8.084;2022-08-07T01:14:44;9.07;;;5.22;;
20531;SDS011;10424;52.102;8.084;2022-08-07T01:17:12;9.32;;;5.55;;
20531;SDS011;10424;52.102;8.084;2022-08-07T01:19:39;9.40;;;5.75;;
20531;SDS011;10424;52.102;8.084;2022-08-07T01:22:11;9.75;;;5.53;;
20531;SDS011;10424;52.102;8.084;2022-08-07T01:24:39;9.45;;;5.75;;
20531;SDS011;10424;52.102;8.084;2022-08-07T01:27:07;9.85;;;5.85;;
20531;SDS011;10424;52.102;8.084;2022-08-07T01:29:35;9.02;;;5.75;;
20531;SDS011;10424;52.102;8.084;2022-08-07T01:32:02;9.20;;;5.70;;
20531;SDS011;10424;52.102;8.084;2022-08-07T01:34:30;8.65;;;5.22;;
20531;SDS011;10424;52.102;8.084;2022-08-07T01:36:58;9.65;;;5.78;;
20531;SDS011;10424;52.102;8.084;2022-08-07T01:39:28;9.35;;;5.57;;
20531;SDS011;10424;52.102;8.084;2022-08-07T01:41:55;10.48;;;5.97;;
20531;SDS011;10424;52.102;8.084;2022-08-07T01:44:23;9.38;;;5.95;;
20531;SDS011;10424;52.102;8.084;2022-08-07T01:46:50;8.85;;;5.50;;
20531;SDS011;10424;52.102;8.084;2022-08-07T01:49:17;9.77;;;5.85;;
20531;SDS011;10424;52.102;8.084;2022-08-07T01:51:45;10.20;;;5.53;;
20531;SDS011;10424;52.102;8.084;2022-08-07T01:54:13;9.27;;;5.72;;
20531;SDS011;10424;52.102;8.084;2022-08-07T01:56:45;9.93;;;5.68;;
20531;SDS011;10424;52.102;8.084;2022-08-07T01:59:16;9.02;;;6.00;;
20531;SDS011;10424;52.102;8.084;2022-08-07T02:01:45;10.23;;;6.10;;
20531;SDS011;10424;52.102;8.084;2022-08-07T02:04:14;10.43;;;6.10;;
20531;SDS011;10424;52.102;8.084;2022-08-07T02:06:43;10.30;;;6.10;;
20531;SDS011;10424;52.102;8.084;2022-08-07T02:09:13;11.23;;;6.18;;
20531;SDS011;10424;52.102;8.084;2022-08-07T02:11:43;10.57;;;6.00;;
20531;SDS011;10424;52.102;8.084;2022-08-07T02:14:12;9.52;;;5.88;;
20531;SDS011;10424;52.102;8.084;2022-08-07T02:16:40;12.98;;;5.93;;
20531;SDS011;10424;52.102;8.084;2022-08-07T02:19:10;9.77;;;5.50;;
20531;SDS011;10424;52.102;8.084;2022-08-07T02:21:38;9.23;;;6.05;;
20531;SDS011;10424;52.102;8.084;2022-08-07T02:24:06;9.80;;;5.80;;
20531;SDS011;10424;52.102;8.084;2022-08-07T02:26:33;8.93;;;5.47;;
20531;SDS011;10424;52.102;8.084;2022-08-07T02:29:02;10.73;;;5.63;;
20531;SDS011;10424;52.102;8.084;2022-08-07T02:31:32;11.60;;;6.15;;
20531;SDS011;10424;52.102;8.084;2022-08-07T02:34:01;10.32;;;5.68;;
20531;SDS011;10424;52.102;8.084;2022-08-07T02:36:30;9.90;;;6.07;;
20531;SDS011;10424;52.102;8.084;2022-08-07T02:38:58;10.98;;;6.32;;
20531;SDS011;10424;52.102;8.084;2022-08-07T02:41:26;9.65;;;6.05;;
20531;SDS011;10424;52.102;8.084;2022-08-07T02:43:55;9.55;;;6.03;;
20531;SDS011;10424;52.102;8.084;2022-08-07T02:46:24;10.00;;;6.00;;
20531;SDS011;10424;52.102;8.084;2022-08-07T02:48:53;11.43;;;6.15;;
20531;SDS011;10424;52.102;8.084;2022-08-07T02:51:21;9.25;;;5.80;;
20531;SDS011;10424;52.102;8.084;2022-08-07T02:53:50;9.45;;;5.78;;
20531;SDS011;10424;52.102;8.084;2022-08-07T02:56:20;11.30;;;6.43;;
20531;SDS011;10424;52.102;8.084;2022-08-07T02:58:48;10.77;;;6.18;;
20531;SDS011;10424;52.102;8.084;2022-08-07T03:01:17;12.20;;;6.45;;
20531;SDS011;10424;52.102;8.084;2022-08-07T03:03:46;9.50;;;6.03;;
20531;SDS011;10424;52.102;8.084;2022-08-07T03:06:16;10.05;;;6.40;;
20531;SDS011;10424;52.102;8.084;2022-08-07T03:08:44;11.18;;;6.20;;
20531;SDS011;10424;52.102;8.084;2022-08-07T03:11:13;9.43;;;5.90;;
20531;SDS011;10424;52.102;8.084;2022-08-07T03:13:41;9.65;;;6.22;;
20531;SDS011;10424;52.102;8.084;2022-08-07T03:16:08;11.73;;;5.97;;
20531;SDS011;10424;52.102;8.084;2022-08-07T03:18:36;9.18;;;5.72;;
20531;SDS011;10424;52.102;8.084;2022-08-07T03:21:04;10.32;;;6.30;;
20531;SDS011;10424;52.102;8.084;2022-08-07T03:23:33;10.25;;;5.85;;
20531;SDS011;10424;52.102;8.084;2022-08-07T03:26:01;10.93;;;6.22;;
20531;SDS011;10424;52.102;8.084;2022-08-07T03:28:29;10.70;;;6.45;;
20531;SDS011;10424;52.102;8.084;2022-08-07T03:30:57;10.95;;;6.28;;
20531;SDS011;10424;52.102;8.084;2022-08-07T03:33:39;11.82;;;6.57;;
20531;SDS011;10424;52.102;8.084;2022-08-07T03:36:07;10.93;;;6.30;;
20531;SDS011;10424;52.102;8.084;2022-08-07T03:38:36;10.88;;;6.10;;
20531;SDS011;10424;52.102;8.084;2022-08-07T03:41:04;11.77;;;6.40;;
20531;SDS011;10424;52.102;8.084;2022-08-07T03:43:32;10.32;;;6.65;;
20531;SDS011;10424;52.102;8.084;2022-08-07T03:46:00;12.57;;;6.53;;
20531;SDS011;10424;52.102;8.084;2022-08-07T03:48:28;13.00;;;6.95;;
20531;SDS011;10424;52.102;8.084;2022-08-07T03:50:56;12.18;;;6.50;;
20531;SDS011;10424;52.102;8.084;2022-08-07T03:53:23;10.48;;;6.05;;
20531;SDS011;10424;52.102;8.084;2022-08-07T03:55:52;14.43;;;6.32;;
20531;SDS011;10424;52.102;8.084;2022-08-07T03:58:20;11.00;;;6.10;;
20531;SDS011;10424;52.102;8.084;2022-08-07T04:00:47;10.60;;;6.20;;
20531;SDS011;10424;52.102;8.084;2022-08-07T04:03:15;11.25;;;5.90;;
20531;SDS011;10424;52.102;8.084;2022-08-07T04:05:43;10.20;;;5.82;;
20531;SDS011;10424;52.102;8.084;2022-08-07T04:08:10;12.10;;;6.35;;
20531;SDS011;10424;52.102;8.084;2022-08-07T04:10:38;11.25;;;6.05;;
20531;SDS011;10424;52.102;8.084;2022-08-07T04:13:07;9.52;;;5.90;;
20531;SDS011;10424;52.102;8.084;2022-08-07T04:15:36;9.25;;;5.40;;
20531;SDS011;10424;52.102;8.084;2022-08-07T04:18:04;10.55;;;6.43;;
20531;SDS011;10424;52.102;8.084;2022-08-07T04:20:32;9.27;;;5.72;;
20531;SDS011;10424;52.102;8.084;2022-08-07T04:22:59;11.32;;;5.38;;
20531;SDS011;10424;52.102;8.084;2022-08-07T04:25:27;10.15;;;5.70;;
20531;SDS011;10424;52.102;8.084;2022-08-07T04:27:55;9.32;;;5.85;;
20531;SDS011;10424;52.102;8.084;2022-08-07T04:30:23;8.15;;;5.40;;
20531;SDS011;10424;52.102;8.084;2022-08-07T04:32:51;8.60;;;5.78;;
20531;SDS011;10424;52.102;8.084;2022-08-07T04:35:18;9.35;;;5.32;;
20531;SDS011;10424;52.102;8.084;2022-08-07T04:37:45;9.55;;;5.47;;
20531;SDS011;10424;52.102;8.084;2022-08-07T04:40:13;7.35;;;5.20;;
20531;SDS011;10424;52.102;8.084;2022-08-07T04:42:41;9.75;;;5.65;;
20531;SDS011;10424;52.102;8.084;2022-08-07T04:45:09;10.73;;;5.53;;
20531;SDS011;10424;52.102;8.084;2022-08-07T04:47:40;12.27;;;5.53;;
20531;SDS011;10424;52.102;8.084;2022-08-07T04:50:10;9.00;;;5.40;;
20531;SDS011;10424;52.102;8.084;2022-08-07T04:52:39;9.48;;;5.32;;
20531;SDS011;10424;52.102;8.084;2022-08-07T04:55:11;11.55;;;5.47;;
20531;SDS011;10424;52.102;8.084;2022-08-07T04:57:41;10.70;;;5.40;;
20531;SDS011;10424;52.102;8.084;2022-08-07T05:00:14;8.85;;;5.40;;
20531;SDS011;10424;52.102;8.084;2022-08-07T05:02:51;9.00;;;5.22;;
20531;SDS011;10424;52.102;8.084;2022-08-07T05:05:22;7.78;;;5.40;;
20531;SDS011;10424;52.102;8.084;2022-08-07T05:07:52;10.90;;;5.32;;
20531;SDS011;10424;52.102;8.084;2022-08-07T05:10:22;8.48;;;4.80;;
20531;SDS011;10424;52.102;8.084;2022-08-07T05:12:49;8.27;;;4.90;;
20531;SDS011;10424;52.102;8.084;2022-08-07T05:15:19;9.18;;;5.35;;
20531;SDS011;10424;52.102;8.084;2022-08-07T05:17:54;7.28;;;5.15;;
20531;SDS011;10424;52.102;8.084;2022-08-07T05:20:23;9.57;;;4.93;;
20531;SDS011;10424;52.102;8.084;2022-08-07T05:22:52;11.73;;;5.05;;
20531;SDS011;10424;52.102;8.084;2022-08-07T05:25:21;8.68;;;5.20;;
20531;SDS011;10424;52.102;8.084;2022-08-07T05:27:49;10.07;;;5.43;;
20531;SDS011;10424;52.102;8.084;2022-08-07T05:30:16;8.27;;;4.70;;
20531;SDS011;10424;52.102;8.084;2022-08-07T05:32:44;8.68;;;5.30;;
20531;SDS011;10424;52.102;8.084;2022-08-07T05:35:14;9.10;;;4.72;;
20531;SDS011;10424;52.102;8.084;2022-08-07T05:37:43;9.95;;;5.30;;
20531;SDS011;10424;52.102;8.084;2022-08-07T05:40:10;8.02;;;4.82;;
20531;SDS011;10424;52.102;8.084;2022-08-07T05:42:38;6.20;;;4.70;;
20531;SDS011;10424;52.102;8.084;2022-08-07T05:45:06;6.95;;;4.88;;
20531;SDS011;10424;52.102;8.084;2022-08-07T05:47:33;10.45;;;4.93;;
20531;SDS011;10424;52.102;8.084;2022-08-07T05:50:01;7.25;;;4.93;;
20531;SDS011;10424;52.102;8.084;2022-08-07T05:52:30;9.35;;;4.70;;
20531;SDS011;10424;52.102;8.084;2022-08-07T05:54:58;8.02;;;5.07;;
20531;SDS011;10424;52.102;8.084;2022-08-07T05:57:25;7.05;;;4.80;;
20531;SDS011;10424;52.102;8.084;2022-08-07T05:59:53;7.03;;;4.43;;
20531;SDS011;10424;52.102;8.084;2022-08-07T06:02:21;8.70;;;4.60;;
20531;SDS011;10424;52.102;8.084;2022-08-07T06:04:51;7.03;;;4.45;;
20531;SDS011;10424;52.102;8.084;2022-08-07T06:07:19;7.45;;;4.47;;
20531;SDS011;10424;52.102;8.084;2022-08-07T06:09:48;7.47;;;4.57;;
20531;SDS011;10424;52.102;8.084;2022-08-07T06:12:15;6.68;;;4.25;;
20531;SDS011;10424;52.102;8.084;2022-08-07T06:14:42;7.35;;;4.32;;
20531;SDS011;10424;52.102;8.084;2022-08-07T06:17:10;9.32;;;4.18;;
20531;SDS011;10424;52.102;8.084;2022-08-07T06:19:38;7.93;;;4.25;;
20531;SDS011;10424;52.102;8.084;2022-08-07T06:22:06;10.48;;;3.90;;
20531;SDS011;10424;52.102;8.084;2022-08-07T06:24:33;7.35;;;3.10;;
20531;SDS011;10424;52.102;8.084;2022-08-07T06:27:03;5.28;;;2.72;;
20531;SDS011;10424;52.102;8.084;2022-08-07T06:29:31;5.97;;;2.90;;
20531;SDS011;10424;52.102;8.084;2022-08-07T06:31:59;5.53;;;2.85;;
20531;SDS011;10424;52.102;8.084;2022-08-07T06:34:26;5.72;;;2.95;;
20531;SDS011;10424;52.102;8.084;2022-08-07T06:36:54;3.60;;;2.70;;
20531;SDS011;10424;52.102;8.084;2022-08-07T06:39:21;4.20;;;3.00;;
20531;SDS011;10424;52.102;8.084;2022-08-07T06:41:52;4.28;;;2.85;;
20531;SDS011;10424;52.102;8.084;2022-08-07T06:44:22;8.40;;;3.22;;
20531;SDS011;10424;52.102;8.084;2022-08-07T06:46:51;3.65;;;2.95;;
20531;SDS011;10424;52.102;8.084;2022-08-07T06:49:18;5.28;;;2.97;;
20531;SDS011;10424;52.102;8.084;2022-08-07T06:51:45;4.78;;;2.80;;
20531;SDS011;10424;52.102;8.084;2022-08-07T06:54:13;3.25;;;2.67;;
20531;SDS011;10424;52.102;8.084;2022-08-07T06:56:41;5.65;;;3.22;;
20531;SDS011;10424;52.102;8.084;2022-08-07T06:59:12;6.68;;;3.13;;
20531;SDS011;10424;52.102;8.084;2022-08-07T07:01:41;5.53;;;2.80;;
20531;SDS011;10424;52.102;8.084;2022-08-07T07:04:09;4.88;;;2.92;;
20531;SDS011;10424;52.102;8.084;2022-08-07T07:06:37;5.05;;;2.75;;
20531;SDS011;10424;52.102;8.084;2022-08-07T07:09:20;5.18;;;2.80;;
20531;SDS011;10424;52.102;8.084;2022-08-07T07:11:53;4.75;;;2.38;;
20531;SDS011;10424;52.102;8.084;2022-08-07T07:14:23;4.72;;;2.70;;
20531;SDS011;10424;52.102;8.084;2022-08-07T07:16:52;5.00;;;2.65;;
20531;SDS011;10424;52.102;8.084;2022-08-07T07:19:24;3.15;;;2.45;;
20531;SDS011;10424;52.102;8.084;2022-08-07T07:21:53;4.68;;;2.38;;
20531;SDS011;10424;52.102;8.084;2022-08-07T07:24:20;3.80;;;2.70;;
20531;SDS011;10424;52.102;8.084;2022-08-07T07:26:48;4.78;;;2.53;;
20531;SDS011;10424;52.102;8.084;2022-08-07T07:29:16;5.50;;;2.30;;
20531;SDS011;10424;52.102;8.084;2022-08-07T07:31:48;5.30;;;2.42;;
20531;SDS011;10424;52.102;8.084;2022-08-07T07:34:18;3.35;;;2.80;;
20531;SDS011;10424;52.102;8.084;2022-08-07T07:36:47;4.22;;;2.33;;
20531;SDS011;10424;52.102;8.084;2022-08-07T07:39:15;2.35;;;2.03;;
20531;SDS011;10424;52.102;8.084;2022-08-07T07:41:43;7.50;;;2.40;;
20531;SDS011;10424;52.102;8.084;2022-08-07T07:44:12;6.93;;;2.10;;
20531;SDS011;10424;52.102;8.084;2022-08-07T07:46:42;6.60;;;1.90;;
20531;SDS011;10424;52.102;8.084;2022-08-07T07:49:10;2.72;;;1.88;;
20531;SDS011;10424;52.102;8.084;2022-08-07T07:51:39;3.55;;;2.10;;
20531;SDS011;10424;52.102;8.084;2022-08-07T07:54:08;4.53;;;2.15;;
20531;SDS011;10424;52.102;8.084;2022-08-07T07:56:35;2.90;;;2.13;;
20531;SDS011;10424;52.102;8.084;2022-08-07T07:59:04;3.53;;;2.00;;
20531;SDS011;10424;52.102;8.084;2022-08-07T08:01:32;3.65;;;2.10;;
20531;SDS011;10424;52.102;8.084;2022-08-07T08:04:01;4.22;;;1.80;;
20531;SDS011;10424;52.102;8.084;2022-08-07T08:06:29;2.97;;;2.03;;
20531;SDS011;10424;52.102;8.084;2022-08-07T08:09:01;4.97;;;2.20;;
20531;SDS011;10424;52.102;8.084;2022-08-07T08:11:28;3.15;;;2.03;;
20531;SDS011;10424;52.102;8.084;2022-08-07T08:13:56;4.75;;;1.90;;
20531;SDS011;10424;52.102;8.084;2022-08-07T08:16:25;3.30;;;2.10;;
20531;SDS011;10424;52.102;8.084;2022-08-07T08:18:53;2.80;;;1.20;;
20531;SDS011;10424;52.102;8.084;2022-08-07T08:21:22;2.60;;;1.67;;
20531;SDS011;10424;52.102;8.084;2022-08-07T08:24:09;2.20;;;1.90;;
20531;SDS011;10424;52.102;8.084;2022-08-07T08:26:54;3.15;;;1.90;;
20531;SDS011;10424;52.102;8.084;2022-08-07T08:29:35;3.35;;;1.98;;
20531;SDS011;10424;52.102;8.084;2022-08-07T08:32:04;2.65;;;1.75;;
20531;SDS011;10424;52.102;8.084;2022-08-07T08:34:31;2.13;;;1.45;;
20531;SDS011;10424;52.102;8.084;2022-08-07T08:37:00;3.40;;;1.30;;
20531;SDS011;10424;52.102;8.084;2022-08-07T08:39:30;2.63;;;1.40;;
20531;SDS011;10424;52.102;8.084;2022-08-07T08:41:58;1.40;;;1.20;;
20531;SDS011;10424;52.102;8.084;2022-08-07T08:44:29;3.85;;;1.25;;
20531;SDS011;10424;52.102;8.084;2022-08-07T08:47:01;1.50;;;1.00;;
20531;SDS011;10424;52.102;8.084;2022-08-07T08:49:32;1.38;;;0.73;;
20531;SDS011;10424;52.102;8.084;2022-08-07T08:52:02;2.53;;;1.10;;
20531;SDS011;10424;52.102;8.084;2022-08-07T08:54:35;2.45;;;0.95;;
20531;SDS011;10424;52.102;8.084;2022-08-07T08:57:06;1.15;;;0.90;;
20531;SDS011;10424;52.102;8.084;2022-08-07T08:59:38;3.08;;;1.00;;
20531;SDS011;10424;52.102;8.084;2022-08-07T09:02:08;2.35;;;1.10;;
20531;SDS011;10424;52.102;8.084;2022-08-07T09:04:40;4.88;;;1.20;;
20531;SDS011;10424;52.102;8.084;2022-08-07T09:07:10;2.42;;;1.30;;
20531;SDS011;10424;52.102;8.084;2022-08-07T09:09:43;1.20;;;0.90;;
20531;SDS011;10424;52.102;8.084;2022-08-07T09:12:21;2.20;;;1.10;;
20531;SDS011;10424;52.102;8.084;2022-08-07T09:14:57;1.10;;;1.00;;
20531;SDS011;10424;52.102;8.084;2022-08-07T09:17:30;2.55;;;1.17;;
20531;SDS011;10424;52.102;8.084;2022-08-07T09:20:04;2.65;;;1.02;;
20531;SDS011;10424;52.102;8.084;2022-08-07T09:22:37;2.05;;;1.10;;
20531;SDS011;10424;52.102;8.084;2022-08-07T09:25:09;2.05;;;1.05;;
20531;SDS011;10424;52.102;8.084;2022-08-07T09:27:39;1.77;;;1.00;;
20531;SDS011;10424;52.102;8.084;2022-08-07T09:30:08;2.30;;;1.10;;
20531;SDS011;10424;52.102;8.084;2022-08-07T09:35:25;1.70;;;0.90;;
20531;SDS011;10424;52.102;8.084;2022-08-07T09:37:57;2.65;;;1.20;;
20531;SDS011;10424;52.102;8.084;2022-08-07T09:40:27;2.95;;;1.10;;
20531;SDS011;10424;52.102;8.084;2022-08-07T09:42:57;1.38;;;1.02;;
20531;SDS011;10424;52.102;8.084;2022-08-07T09:45:31;1.30;;;1.02;;
20531;SDS011;10424;52.102;8.084;2022-08-07T09:50:54;1.63;;;1.10;;
20531;SDS011;10424;52.102;8.084;2022-08-07T09:53:26;1.80;;;0.90;;
20531;SDS011;10424;52.102;8.084;2022-08-07T09:56:13;1.17;;;0.90;;
20531;SDS011;10424;52.102;8.084;2022-08-07T09:59:00;1.42;;;1.10;;
20531;SDS011;10424;52.102;8.084;2022-08-07T10:01:34;1.30;;;0.90;;
20531;SDS011;10424;52.102;8.084;2022-08-07T10:04:13;1.52;;;0.90;;
20531;SDS011;10424;52.102;8.084;2022-08-07T10:06:48;1.40;;;0.90;;
20531;SDS011;10424;52.102;8.084;2022-08-07T10:12:13;1.13;;;0.80;;
20531;SDS011;10424;52.102;8.084;2022-08-07T10:14:50;2.30;;;0.85;;
20531;SDS011;10424;52.102;8.084;2022-08-07T10:17:31;2.42;;;1.00;;
20531;SDS011;10424;52.102;8.084;2022-08-07T10:20:03;1.45;;;0.90;;
20531;SDS011;10424;52.102;8.084;2022-08-07T10:22:43;1.85;;;1.00;;
20531;SDS011;10424;52.102;8.084;2022-08-07T10:25:15;1.27;;;0.80;;
20531;SDS011;10424;52.102;8.084;2022-08-07T10:27:51;1.77;;;0.80;;
20531;SDS011;10424;52.102;8.084;2022-08-07T10:30:22;2.13;;;0.95;;
20531;SDS011;10424;52.102;8.084;2022-08-07T10:33:06;1.30;;;0.85;;
20531;SDS011;10424;52.102;8.084;2022-08-07T10:35:42;1.63;;;0.90;;
20531;SDS011;10424;52.102;8.084;2022-08-07T10:38:13;1.23;;;0.90;;
20531;SDS011;10424;52.102;8.084;2022-08-07T10:40:46;1.90;;;0.75;;
20531;SDS011;10424;52.102;8.084;2022-08-07T10:43:18;1.77;;;1.00;;
20531;SDS011;10424;52.102;8.084;2022-08-07T10:45:47;1.15;;;0.90;;
20531;SDS011;10424;52.102;8.084;2022-08-07T10:48:19;3.17;;;1.00;;
20531;SDS011;10424;52.102;8.084;2022-08-07T10:50:51;1.08;;;0.80;;
20531;SDS011;10424;52.102;8.084;2022-08-07T10:53:22;2.45;;;0.90;;
20531;SDS011;10424;52.102;8.084;2022-08-07T10:55:52;1.92;;;0.90;;
20531;SDS011;10424;52.102;8.084;2022-08-07T10:58:30;1.20;;;0.80;;
20531;SDS011;10424;52.102;8.084;2022-08-07T11:01:05;2.75;;;0.90;;
20531;SDS011;10424;52.102;8.084;2022-08-07T11:03:37;3.80;;;0.80;;
20531;SDS011;10424;52.102;8.084;2022-08-07T11:06:07;2.67;;;0.90;;
20531;SDS011;10424;52.102;8.084;2022-08-07T11:08:38;1.42;;;0.93;;
20531;SDS011;10424;52.102;8.084;2022-08-07T11:11:07;1.67;;;0.90;;
20531;SDS011;10424;52.102;8.084;2022-08-07T11:13:37;1.88;;;0.80;;
20531;SDS011;10424;52.102;8.084;2022-08-07T11:16:07;1.70;;;0.98;;
20531;SDS011;10424;52.102;8.084;2022-08-07T11:18:36;0.88;;;0.80;;
20531;SDS011;10424;52.102;8.084;2022-08-07T11:21:06;1.85;;;1.00;;
20531;SDS011;10424;52.102;8.084;2022-08-07T11:23:38;1.48;;;0.98;;
20531;SDS011;10424;52.102;8.084;2022-08-07T11:26:12;2.45;;;1.00;;
20531;SDS011;10424;52.102;8.084;2022-08-07T11:28:55;2.15;;;1.00;;
20531;SDS011;10424;52.102;8.084;2022-08-07T11:31:26;2.70;;;0.90;;
20531;SDS011;10424;52.102;8.084;2022-08-07T11:33:56;1.73;;;0.88;;
20531;SDS011;10424;52.102;8.084;2022-08-07T11:36:33;2.22;;;1.20;;
20531;SDS011;10424;52.102;8.084;2022-08-07T11:39:06;1.33;;;1.00;;
20531;SDS011;10424;52.102;8.084;2022-08-07T11:41:37;3.72;;;1.00;;
20531;SDS011;10424;52.102;8.084;2022-08-07T11:44:16;1.38;;;1.10;;
20531;SDS011;10424;52.102;8.084;2022-08-07T11:46:47;2.03;;;1.20;;
20531;SDS011;10424;52.102;8.084;2022-08-07T11:49:20;1.17;;;1.00;;
20531;SDS011;10424;52.102;8.084;2022-08-07T11:51:58;2.03;;;1.13;;
20531;SDS011;10424;52.102;8.084;2022-08-07T11:54:35;2.30;;;1.20;;
20531;SDS011;10424;52.102;8.084;2022-08-07T11:57:08;1.52;;;0.98;;
20531;SDS011;10424;52.102;8.084;2022-08-07T12:02:28;1.27;;;1.00;;
20531;SDS011;10424;52.102;8.084;2022-08-07T12:05:04;1.88;;;0.80;;
20531;SDS011;10424;52.102;8.084;2022-08-07T12:07:34;1.95;;;1.02;;
20531;SDS011;10424;52.102;8.084;2022-08-07T12:10:04;2.90;;;1.10;;
20531;SDS011;10424;52.102;8.084;2022-08-07T12:12:34;1.70;;;1.10;;
20531;SDS011;10424;52.102;8.084;2022-08-07T12:15:03;1.33;;;1.02;;
20531;SDS011;10424;52.102;8.084;2022-08-07T12:17:36;2.25;;;1.02;;
20531;SDS011;10424;52.102;8.084;2022-08-07T12:20:05;1.27;;;1.00;;
20531;SDS011;10424;52.102;8.084;2022-08-07T12:22:36;2.78;;;1.13;;
20531;SDS011;10424;52.102;8.084;2022-08-07T12:25:08;1.45;;;1.05;;
20531;SDS011;10424;52.102;8.084;2022-08-07T12:27:56;1.50;;;1.20;;
20531;SDS011;10424;52.102;8.084;2022-08-07T12:30:25;3.00;;;1.20;;
20531;SDS011;10424;52.102;8.084;2022-08-07T12:32:59;2.05;;;1.10;;
20531;SDS011;10424;52.102;8.084;2022-08-07T12:35:30;2.05;;;1.20;;
20531;SDS011;10424;52.102;8.084;2022-08-07T12:37:57;2.30;;;1.10;;
20531;SDS011;10424;52.102;8.084;2022-08-07T12:40:31;1.80;;;1.25;;
20531;SDS011;10424;52.102;8.084;2022-08-07T12:43:00;3.03;;;1.50;;
20531;SDS011;10424;52.102;8.084;2022-08-07T12:45:30;1.55;;;1.23;;
20531;SDS011;10424;52.102;8.084;2022-08-07T12:48:01;1.77;;;1.10;;
20531;SDS011;10424;52.102;8.084;2022-08-07T12:50:31;1.67;;;1.20;;
20531;SDS011;10424;52.102;8.084;2022-08-07T12:53:02;2.30;;;1.20;;
20531;SDS011;10424;52.102;8.084;2022-08-07T12:55:32;2.83;;;1.20;;
20531;SDS011;10424;52.102;8.084;2022-08-07T12:58:01;1.67;;;1.00;;
20531;SDS011;10424;52.102;8.084;2022-08-07T13:00:32;2.30;;;1.20;;
20531;SDS011;10424;52.102;8.084;2022-08-07T13:03:06;2.45;;;1.15;;
20531;SDS011;10424;52.102;8.084;2022-08-07T13:05:40;2.90;;;1.10;;
20531;SDS011;10424;52.102;8.084;2022-08-07T13:10:59;1.55;;;1.10;;
20531;SDS011;10424;52.102;8.084;2022-08-07T13:13:33;1.88;;;1.20;;
20531;SDS011;10424;52.102;8.084;2022-08-07T13:16:05;1.45;;;1.15;;
20531;SDS011;10424;52.102;8.084;2022-08-07T13:18:38;2.90;;;1.30;;
20531;SDS011;10424;52.102;8.084;2022-08-07T13:21:09;1.27;;;0.93;;
20531;SDS011;10424;52.102;8.084;2022-08-07T13:23:44;1.77;;;1.13;;
20531;SDS011;10424;52.102;8.084;2022-08-07T13:26:16;2.80;;;1.20;;
20531;SDS011;10424;52.102;8.084;2022-08-07T13:28:45;1.42;;;1.17;;
20531;SDS011;10424;52.102;8.084;2022-08-07T13:31:16;3.08;;;1.10;;
20531;SDS011;10424;52.102;8.084;2022-08-07T13:33:47;2.20;;;1.70;;
20531;SDS011;10424;52.102;8.084;2022-08-07T13:36:18;2.30;;;1.50;;
20531;SDS011;10424;52.102;8.084;2022-08-07T13:38:48;2.67;;;1.48;;
20531;SDS011;10424;52.102;8.084;2022-08-07T13:41:20;2.17;;;1.30;;
20531;SDS011;10424;52.102;8.084;2022-08-07T13:43:52;1.58;;;1.40;;
20531;SDS011;10424;52.102;8.084;2022-08-07T13:46:20;2.05;;;1.40;;
20531;SDS011;10424;52.102;8.084;2022-08-07T13:48:51;2.90;;;1.30;;
20531;SDS011;10424;52.102;8.084;2022-08-07T13:51:19;1.42;;;1.10;;
20531;SDS011;10424;52.102;8.084;2022-08-07T13:53:49;1.88;;;1.38;;
20531;SDS011;10424;52.102;8.084;2022-08-07T13:56:17;1.92;;;1.13;;
20531;SDS011;10424;52.102;8.084;2022-08-07T13:58:46;4.05;;;1.17;;
20531;SDS011;10424;52.102;8.084;2022-08-07T14:01:27;2.53;;;1.20;;
20531;SDS011;10424;52.102;8.084;2022-08-07T14:03:57;2.13;;;1.30;;
20531;SDS011;10424;52.102;8.084;2022-08-07T14:06:29;1.73;;;1.25;;
20531;SDS011;10424;52.102;8.084;2022-08-07T14:08:57;2.28;;;1.20;;
20531;SDS011;10424;52.102;8.084;2022-08-07T14:11:26;1.90;;;1.17;;
20531;SDS011;10424;52.102;8.084;2022-08-07T14:13:55;4.05;;;1.10;;
20531;SDS011;10424;52.102;8.084;2022-08-07T14:16:29;1.45;;;1.10;;
20531;SDS011;10424;52.102;8.084;2022-08-07T14:18:59;2.20;;;1.30;;
20531;SDS011;10424;52.102;8.084;2022-08-07T14:21:29;3.67;;;1.30;;
20531;SDS011;10424;52.102;8.084;2022-08-07T14:23:59;2.20;;;1.33;;
20531;SDS011;10424;52.102;8.084;2022-08-07T14:26:29;2.20;;;1.40;;
20531;SDS011;10424;52.102;8.084;2022-08-07T14:28:58;2.35;;;1.10;;
20531;SDS011;10424;52.102;8.084;2022-08-07T14:31:26;2.22;;;1.25;;
20531;SDS011;10424;52.102;8.084;2022-08-07T14:33:54;1.80;;;1.00;;
20531;SDS011;10424;52.102;8.084;2022-08-07T14:36:23;1.63;;;1.15;;
20531;SDS011;10424;52.102;8.084;2022-08-07T14:38:51;2.05;;;1.30;;
20531;SDS011;10424;52.102;8.084;2022-08-07T14:41:21;1.98;;;1.30;;
20531;SDS011;10424;52.102;8.084;2022-08-07T14:43:51;2.35;;;1.23;;
20531;SDS011;10424;52.102;8.084;2022-08-07T14:46:19;2.03;;;1.17;;
20531;SDS011;10424;52.102;8.084;2022-08-07T14:48:48;2.53;;;1.38;;
20531;SDS011;10424;52.102;8.084;2022-08-07T14:51:18;1.80;;;1.30;;
20531;SDS011;10424;52.102;8.084;2022-08-07T14:53:48;1.40;;;1.20;;
20531;SDS011;10424;52.102;8.084;2022-08-07T14:56:17;3.22;;;1.40;;
20531;SDS011;10424;52.102;8.084;2022-08-07T14:58:47;2.85;;;1.48;;
20531;SDS011;10424;52.102;8.084;2022-08-07T15:01:15;1.23;;;1.10;;
20531;SDS011;10424;52.102;8.084;2022-08-07T15:03:44;1.80;;;1.30;;
20531;SDS011;10424;52.102;8.084;2022-08-07T15:06:12;3.70;;;1.30;;
20531;SDS011;10424;52.102;8.084;2022-08-07T15:08:41;3.72;;;1.48;;
20531;SDS011;10424;52.102;8.084;2022-08-07T15:11:13;2.42;;;1.30;;
20531;SDS011;10424;52.102;8.084;2022-08-07T15:13:45;3.13;;;1.40;;
20531;SDS011;10424;52.102;8.084;2022-08-07T15:16:13;1.80;;;1.48;;